Fadime K — TCCT2 — position and weather

sailwx.info

Track history (hours):
 
Tides and Currents Weather Stations Pressure Air Temp Water Temp Dewpoint Dewpoint Depression Visibility Wind Speed Wind Dir Waves Ship Positions

Fadime K

Last reported at 2017-Dec-14 18:25 UTC. Time now 2017-Dec-16 22:42 UTC.
Position N 44°23' E 014°24'.

Length 72 m; draft 5.2 m.

Type: Cargo ship. MMSI: 271002318.

Date/timePositionNaut miles runAvg speedWind from/ knotsBaromVisibWave heightAir tempDewpointWater temp
2017-Dec-14 18:25N 44°23' E 014°24'11 9.2
2017-Dec-14 17:14N 44°31' E 014°14'3 8.9
2017-Dec-14 16:56N 44°34' E 014°13'4 8.9
2017-Dec-14 16:30N 44°38' E 014°12'5 9.1
2017-Dec-14 16:00N 44°42' E 014°12'9 9.1
2017-Dec-14 15:00N 44°51' E 014°13'5 9.1
2017-Dec-14 14:30N 44°56' E 014°14'5 9.5
2017-Dec-14 13:57N 45°01' E 014°14'9 9.5
2017-Dec-14 13:02N 45°10' E 014°16'0 9.1
2017-Dec-14 13:00N 45°10' E 014°16'5 9.2
2017-Dec-14 12:30N 45°14' E 014°19'5 9.5
2017-Dec-14 12:00N 45°18' E 014°23'2 0.1
2017-Dec-13 05:45N 45°19' E 014°25'0 0.3
2017-Dec-13 05:30N 45°19' E 014°25'2 4.2
2017-Dec-13 05:00N 45°18' E 014°23'5 8.8
2017-Dec-13 04:29N 45°14' E 014°20'4 9.1
2017-Dec-13 04:01N 45°10' E 014°17'10 9.0
2017-Dec-13 02:52N 44°60' E 014°13'4 9.3
2017-Dec-13 02:28N 44°57' E 014°11'4 9.5
2017-Dec-13 02:00N 44°53' E 014°07'5 9.7
2017-Dec-13 01:31N 44°49' E 014°04'5 9.3
2017-Dec-13 01:00N 44°45' E 013°59'4 8.6
2017-Dec-13 00:29N 44°43' E 013°54'4 8.3
2017-Dec-13 00:00N 44°45' E 013°49'4 8.5
2017-Dec-12 23:30N 44°46' E 013°43'4 8.5
2017-Dec-12 23:01N 44°48' E 013°38'4 8.4
2017-Dec-12 22:30N 44°50' E 013°32'4 8.6
2017-Dec-12 22:01N 44°51' E 013°27'4 8.6
2017-Dec-12 21:30N 44°53' E 013°21'4 8.6
2017-Dec-12 21:00N 44°54' E 013°16'4 8.4
2017-Dec-12 20:31N 44°56' E 013°10'4 8.2
2017-Dec-12 20:01N 44°57' E 013°05'4 8.0
2017-Dec-12 19:30N 44°59' E 012°60'4 7.9
2017-Dec-12 19:00N 45°01' E 012°55'4 7.9
2017-Dec-12 18:30N 45°03' E 012°50'4 7.7
2017-Dec-12 18:00N 45°05' E 012°45'4 7.8
2017-Dec-12 17:31N 45°07' E 012°40'4 8.0
2017-Dec-12 17:01N 45°09' E 012°36'4 8.0
2017-Dec-12 16:31N 45°11' E 012°31'4 8.3
2017-Dec-12 16:00N 45°13' E 012°26'4 8.2
2017-Dec-12 15:31N 45°14' E 012°20'3 5.7
2017-Dec-12 15:00N 45°13' E 012°16'0 0.8
2017-Dec-12 14:24N 45°13' E 012°16'0 0.0
2017-Dec-12 13:51N 45°13' E 012°16'0 0.0
2017-Dec-12 13:30N 45°13' E 012°16'0 0.0
2017-Dec-12 12:57N 45°13' E 012°16'0 0.0
2017-Dec-12 12:18N 45°13' E 012°16'0 0.0
2017-Dec-12 11:51N 45°13' E 012°16'0 0.0
2017-Dec-12 11:27N 45°13' E 012°16'0 0.0
2017-Dec-12 11:00N 45°13' E 012°16'0 0.0
2017-Dec-12 10:30N 45°13' E 012°16'0 0.0
2017-Dec-12 10:00N 45°13' E 012°16'0 0.0
2017-Dec-12 09:27N 45°13' E 012°16'0 0.0
2017-Dec-12 08:54N 45°13' E 012°16'0 0.0
2017-Dec-12 08:27N 45°13' E 012°16'0 0.0
2017-Dec-12 08:00N 45°13' E 012°16'0 0.0
2017-Dec-12 07:27N 45°13' E 012°16'0 0.0
2017-Dec-12 06:48N 45°13' E 012°16'0 0.0
2017-Dec-12 06:30N 45°13' E 012°16'0 0.0
2017-Dec-12 06:00N 45°13' E 012°16'0 0.0
2017-Dec-12 05:30N 45°13' E 012°16'0 0.0
2017-Dec-12 05:00N 45°13' E 012°16'0 0.0
2017-Dec-12 04:27N 45°13' E 012°16'0 0.0
2017-Dec-12 04:00N 45°13' E 012°16'0 0.0
2017-Dec-12 03:30N 45°13' E 012°16'0 0.0
2017-Dec-12 02:57N 45°13' E 012°16'0 0.0
2017-Dec-12 02:30N 45°13' E 012°16'0 0.0
2017-Dec-12 02:00N 45°13' E 012°16'0 0.0
2017-Dec-12 01:30N 45°13' E 012°16'0 0.0
2017-Dec-12 01:00N 45°13' E 012°16'0 0.0
2017-Dec-12 00:27N 45°13' E 012°16'0 0.0
2017-Dec-12 00:00N 45°13' E 012°16'0 0.0
2017-Dec-11 23:30N 45°13' E 012°16'0 0.0
2017-Dec-11 23:00N 45°13' E 012°16'0 0.0
2017-Dec-11 22:21N 45°13' E 012°16'0 0.0
2017-Dec-11 22:00N 45°13' E 012°16'0 0.0
2017-Dec-11 21:27N 45°13' E 012°16'0 0.0
2017-Dec-11 20:54N 45°13' E 012°16'0 0.0
2017-Dec-11 20:21N 45°13' E 012°16'0 0.0
2017-Dec-11 19:57N 45°13' E 012°16'0 0.0
2017-Dec-11 19:27N 45°13' E 012°16'0 0.0
2017-Dec-11 19:00N 45°13' E 012°16'0 0.0
2017-Dec-11 18:30N 45°13' E 012°16'0 0.0
2017-Dec-11 13:12N 45°13' E 012°16'0 0.0
2017-Dec-11 07:54N 45°13' E 012°16'0 0.0
2017-Dec-11 07:24N 45°13' E 012°16'0 0.0
2017-Dec-11 06:12N 45°13' E 012°16'0 0.0
2017-Dec-11 05:51N 45°13' E 012°16'0 0.0
2017-Dec-11 05:24N 45°13' E 012°16'0 0.0
2017-Dec-11 04:54N 45°13' E 012°16'0 0.0
2017-Dec-11 04:30N 45°13' E 012°16'0 0.0
2017-Dec-11 03:48N 45°13' E 012°16'0 0.0
2017-Dec-11 03:27N 45°13' E 012°16'0 0.0
2017-Dec-11 03:00N 45°13' E 012°16'0 0.0
2017-Dec-11 01:51N 45°13' E 012°16'0 0.0
2017-Dec-11 01:30N 45°13' E 012°16'0 0.0
2017-Dec-11 00:54N 45°13' E 012°16'0 0.0
2017-Dec-11 00:30N 45°13' E 012°16'0 0.0
2017-Dec-10 23:54N 45°13' E 012°16'0 0.0
2017-Dec-10 23:21N 45°13' E 012°16'0 0.0
2017-Dec-10 23:00N 45°13' E 012°16'0 0.0
2017-Dec-10 21:36N 45°13' E 012°16'0 0.0
2017-Dec-10 21:30N 45°13' E 012°16'0 0.0
2017-Dec-10 21:00N 45°13' E 012°16'0 0.0
2017-Dec-10 20:30N 45°13' E 012°16'0 0.0
2017-Dec-10 17:45N 45°13' E 012°16'0 0.0
2017-Dec-10 11:12N 45°13' E 012°16'0 0.0
2017-Dec-10 10:48N 45°13' E 012°16'0 0.0
2017-Dec-10 08:36N 45°13' E 012°16'0 0.1
2017-Dec-10 08:30N 45°13' E 012°16'0 0.0
2017-Dec-10 07:57N 45°13' E 012°16'0 0.0
2017-Dec-10 07:30N 45°13' E 012°16'0 0.0
2017-Dec-10 06:54N 45°13' E 012°16'0 0.0
2017-Dec-10 06:24N 45°13' E 012°16'0 0.0
2017-Dec-10 06:00N 45°13' E 012°16'0 0.0
2017-Dec-10 05:24N 45°13' E 012°16'0 0.0
2017-Dec-10 05:00N 45°13' E 012°16'0 0.0
2017-Dec-10 04:30N 45°13' E 012°16'0 0.0
2017-Dec-10 03:51N 45°13' E 012°16'0 0.5
2017-Dec-10 03:30N 45°12' E 012°16'0 0.3
2017-Dec-10 02:58N 45°13' E 012°16'0 0.0
2017-Dec-10 02:28N 45°13' E 012°16'0 0.0
2017-Dec-10 01:58N 45°13' E 012°16'0 0.0
2017-Dec-10 01:28N 45°13' E 012°16'0 0.0
2017-Dec-10 00:49N 45°13' E 012°16'0 0.0
2017-Dec-10 00:28N 45°13' E 012°16'0 0.0
2017-Dec-10 00:00N 45°13' E 012°16'0 0.0
2017-Dec-09 23:20N 45°13' E 012°16'0 0.0
2017-Dec-09 22:59N 45°13' E 012°16'0 0.0
2017-Dec-09 22:26N 45°13' E 012°16'0 0.0
2017-Dec-09 21:59N 45°13' E 012°16'0 0.0
2017-Dec-09 21:29N 45°13' E 012°16'0 0.0
2017-Dec-09 20:59N 45°13' E 012°16'0 0.0
2017-Dec-09 20:29N 45°13' E 012°16'0 0.0
2017-Dec-09 19:56N 45°13' E 012°16'0 0.0
2017-Dec-09 19:29N 45°13' E 012°16'0 0.0
2017-Dec-09 18:59N 45°13' E 012°16'0 0.0
2017-Dec-09 18:20N 45°13' E 012°16'0 0.0
2017-Dec-09 17:56N 45°13' E 012°16'0 0.0
2017-Dec-09 17:08N 45°13' E 012°16'0 0.0
2017-Dec-09 16:35N 45°13' E 012°16'0 0.0
2017-Dec-09 15:55N 45°13' E 012°16'0 0.0
2017-Dec-09 15:22N 45°13' E 012°16'0 0.0
2017-Dec-09 14:55N 45°13' E 012°16'0 0.0
2017-Dec-09 14:22N 45°13' E 012°16'0 0.0
2017-Dec-09 13:58N 45°13' E 012°16'0 0.0
2017-Dec-09 13:28N 45°13' E 012°16'0 0.0
2017-Dec-09 12:55N 45°13' E 012°16'0 0.0
2017-Dec-09 12:13N 45°13' E 012°16'0 0.0
2017-Dec-09 11:55N 45°13' E 012°16'0 0.0
2017-Dec-09 11:19N 45°13' E 012°16'0 0.0
2017-Dec-09 10:58N 45°13' E 012°16'0 0.0
2017-Dec-09 10:19N 45°13' E 012°16'0 0.0
2017-Dec-09 09:55N 45°13' E 012°16'0 0.0
2017-Dec-09 09:25N 45°13' E 012°16'0 0.0
2017-Dec-09 08:55N 45°13' E 012°16'0 0.4
2017-Dec-09 08:29N 45°13' E 012°16'2 4.0
2017-Dec-09 08:01N 45°14' E 012°18'3 5.9
2017-Dec-09 07:30N 45°14' E 012°22'1 1.2
2017-Dec-09 06:59N 45°15' E 012°23'0 0.0
2017-Dec-09 06:28N 45°15' E 012°23'0 0.0
2017-Dec-09 05:53N 45°15' E 012°23'0 0.2
2017-Dec-09 05:20N 45°15' E 012°23'0 0.2
2017-Dec-09 04:58N 45°15' E 012°23'0 0.1
2017-Dec-09 04:23N 45°15' E 012°23'0 0.0
2017-Dec-09 03:59N 45°15' E 012°23'0 0.0
2017-Dec-09 03:29N 45°15' E 012°23'0 0.0
2017-Dec-09 02:52N 45°15' E 012°23'0 0.0
2017-Dec-09 02:23N 45°15' E 012°23'0 0.0
2017-Dec-09 01:59N 45°15' E 012°23'0 0.0
2017-Dec-09 01:26N 45°15' E 012°23'0 0.0
2017-Dec-09 00:59N 45°15' E 012°23'0 0.0
2017-Dec-09 00:29N 45°15' E 012°23'0 0.0
2017-Dec-08 23:59N 45°15' E 012°23'0 0.0
2017-Dec-08 23:26N 45°15' E 012°23'0 0.0
2017-Dec-08 22:59N 45°15' E 012°23'0 0.0
2017-Dec-08 22:29N 45°15' E 012°23'0 0.0
2017-Dec-08 21:58N 45°15' E 012°23'0 0.0
2017-Dec-08 21:22N 45°15' E 012°23'0 0.0
2017-Dec-08 20:59N 45°15' E 012°23'0 0.0
2017-Dec-08 20:28N 45°15' E 012°23'0 0.0
2017-Dec-08 19:59N 45°15' E 012°23'0 0.0
2017-Dec-08 19:19N 45°15' E 012°23'0 0.0
2017-Dec-08 18:59N 45°15' E 012°23'0 0.0
2017-Dec-08 18:29N 45°15' E 012°23'0 0.0
2017-Dec-08 17:56N 45°15' E 012°23'0 0.0
2017-Dec-08 17:28N 45°15' E 012°23'0 0.0
2017-Dec-08 16:53N 45°15' E 012°23'0 0.0
2017-Dec-08 16:29N 45°15' E 012°23'0 0.0
2017-Dec-08 15:59N 45°15' E 012°23'0 0.0
2017-Dec-08 15:29N 45°15' E 012°23'0 0.0
2017-Dec-08 14:53N 45°15' E 012°23'0 0.2
2017-Dec-08 14:30N 45°15' E 012°23'2 4.7
2017-Dec-08 14:00N 45°14' E 012°27'5 9.2
2017-Dec-08 13:30N 45°16' E 012°32'5 9.6
2017-Dec-08 13:00N 45°13' E 012°38'5 9.5
2017-Dec-08 12:30N 45°10' E 012°43'5 9.3
2017-Dec-08 12:00N 45°07' E 012°48'5 9.4
2017-Dec-08 11:30N 45°03' E 012°50'5 9.4
2017-Dec-08 11:00N 44°58' E 012°53'5 9.5
2017-Dec-08 10:30N 44°54' E 012°56'5 9.7
2017-Dec-08 10:00N 44°49' E 012°58'5 9.5
2017-Dec-08 09:30N 44°45' E 013°01'5 9.5
2017-Dec-08 09:00N 44°40' E 013°03'5 9.5
2017-Dec-08 08:30N 44°36' E 013°05'5 9.5
2017-Dec-08 08:00N 44°31' E 013°08'4 9.0
2017-Dec-08 07:30N 44°27' E 013°10'4 8.3
2017-Dec-08 07:00N 44°23' E 013°12'4 8.5
2017-Dec-08 06:30N 44°20' E 013°15'4 8.6
2017-Dec-08 06:00N 44°16' E 013°17'5 8.4
2017-Dec-08 05:27N 44°13' E 013°22'5 8.5
2017-Dec-08 04:50N 44°10' E 013°28'  
Track history (hours):
 
Tides and Currents Weather Stations Pressure Air Temp Water Temp Dewpoint Dewpoint Depression Visibility Wind Speed Wind Dir Waves Ship Positions

Fadime K

Last reported at 2017-Dec-14 18:25 UTC. Time now 2017-Dec-16 22:42 UTC.
Position N 44°23' E 014°24'.

Length 72 m; draft 5.2 m.

Type: Cargo ship. MMSI: 271002318.

Date/timePositionNaut miles runAvg speedWind from/ knotsBaromVisibWave heightAir tempDewpointWater temp
2017-Dec-14 18:25N 44°23' E 014°24'11 9.2
2017-Dec-14 17:14N 44°31' E 014°14'3 8.9
2017-Dec-14 16:56N 44°34' E 014°13'4 8.9
2017-Dec-14 16:30N 44°38' E 014°12'5 9.1
2017-Dec-14 16:00N 44°42' E 014°12'9 9.1
2017-Dec-14 15:00N 44°51' E 014°13'5 9.1
2017-Dec-14 14:30N 44°56' E 014°14'5 9.5
2017-Dec-14 13:57N 45°01' E 014°14'9 9.5
2017-Dec-14 13:02N 45°10' E 014°16'0 9.1
2017-Dec-14 13:00N 45°10' E 014°16'5 9.2
2017-Dec-14 12:30N 45°14' E 014°19'5 9.5
2017-Dec-14 12:00N 45°18' E 014°23'2 0.1
2017-Dec-13 05:45N 45°19' E 014°25'0 0.3
2017-Dec-13 05:30N 45°19' E 014°25'2 4.2
2017-Dec-13 05:00N 45°18' E 014°23'5 8.8
2017-Dec-13 04:29N 45°14' E 014°20'4 9.1
2017-Dec-13 04:01N 45°10' E 014°17'10 9.0
2017-Dec-13 02:52N 44°60' E 014°13'4 9.3
2017-Dec-13 02:28N 44°57' E 014°11'4 9.5
2017-Dec-13 02:00N 44°53' E 014°07'5 9.7
2017-Dec-13 01:31N 44°49' E 014°04'5 9.3
2017-Dec-13 01:00N 44°45' E 013°59'4 8.6
2017-Dec-13 00:29N 44°43' E 013°54'4 8.3
2017-Dec-13 00:00N 44°45' E 013°49'4 8.5
2017-Dec-12 23:30N 44°46' E 013°43'4 8.5
2017-Dec-12 23:01N 44°48' E 013°38'4 8.4
2017-Dec-12 22:30N 44°50' E 013°32'4 8.6
2017-Dec-12 22:01N 44°51' E 013°27'4 8.6
2017-Dec-12 21:30N 44°53' E 013°21'4 8.6
2017-Dec-12 21:00N 44°54' E 013°16'4 8.4
2017-Dec-12 20:31N 44°56' E 013°10'4 8.2
2017-Dec-12 20:01N 44°57' E 013°05'4 8.0
2017-Dec-12 19:30N 44°59' E 012°60'4 7.9
2017-Dec-12 19:00N 45°01' E 012°55'4 7.9
2017-Dec-12 18:30N 45°03' E 012°50'4 7.7
2017-Dec-12 18:00N 45°05' E 012°45'4 7.8
2017-Dec-12 17:31N 45°07' E 012°40'4 8.0
2017-Dec-12 17:01N 45°09' E 012°36'4 8.0
2017-Dec-12 16:31N 45°11' E 012°31'4 8.3
2017-Dec-12 16:00N 45°13' E 012°26'4 8.2
2017-Dec-12 15:31N 45°14' E 012°20'3 5.7
2017-Dec-12 15:00N 45°13' E 012°16'0 0.8
2017-Dec-12 14:24N 45°13' E 012°16'0 0.0
2017-Dec-12 13:51N 45°13' E 012°16'0 0.0
2017-Dec-12 13:30N 45°13' E 012°16'0 0.0
2017-Dec-12 12:57N 45°13' E 012°16'0 0.0
2017-Dec-12 12:18N 45°13' E 012°16'0 0.0
2017-Dec-12 11:51N 45°13' E 012°16'0 0.0
2017-Dec-12 11:27N 45°13' E 012°16'0 0.0
2017-Dec-12 11:00N 45°13' E 012°16'0 0.0
2017-Dec-12 10:30N 45°13' E 012°16'0 0.0
2017-Dec-12 10:00N 45°13' E 012°16'0 0.0
2017-Dec-12 09:27N 45°13' E 012°16'0 0.0
2017-Dec-12 08:54N 45°13' E 012°16'0 0.0
2017-Dec-12 08:27N 45°13' E 012°16'0 0.0
2017-Dec-12 08:00N 45°13' E 012°16'0 0.0
2017-Dec-12 07:27N 45°13' E 012°16'0 0.0
2017-Dec-12 06:48N 45°13' E 012°16'0 0.0
2017-Dec-12 06:30N 45°13' E 012°16'0 0.0
2017-Dec-12 06:00N 45°13' E 012°16'0 0.0
2017-Dec-12 05:30N 45°13' E 012°16'0 0.0
2017-Dec-12 05:00N 45°13' E 012°16'0 0.0
2017-Dec-12 04:27N 45°13' E 012°16'0 0.0
2017-Dec-12 04:00N 45°13' E 012°16'0 0.0
2017-Dec-12 03:30N 45°13' E 012°16'0 0.0
2017-Dec-12 02:57N 45°13' E 012°16'0 0.0
2017-Dec-12 02:30N 45°13' E 012°16'0 0.0
2017-Dec-12 02:00N 45°13' E 012°16'0 0.0
2017-Dec-12 01:30N 45°13' E 012°16'0 0.0
2017-Dec-12 01:00N 45°13' E 012°16'0 0.0
2017-Dec-12 00:27N 45°13' E 012°16'0 0.0
2017-Dec-12 00:00N 45°13' E 012°16'0 0.0
2017-Dec-11 23:30N 45°13' E 012°16'0 0.0
2017-Dec-11 23:00N 45°13' E 012°16'0 0.0
2017-Dec-11 22:21N 45°13' E 012°16'0 0.0
2017-Dec-11 22:00N 45°13' E 012°16'0 0.0
2017-Dec-11 21:27N 45°13' E 012°16'0 0.0
2017-Dec-11 20:54N 45°13' E 012°16'0 0.0
2017-Dec-11 20:21N 45°13' E 012°16'0 0.0
2017-Dec-11 19:57N 45°13' E 012°16'0 0.0
2017-Dec-11 19:27N 45°13' E 012°16'0 0.0
2017-Dec-11 19:00N 45°13' E 012°16'0 0.0
2017-Dec-11 18:30N 45°13' E 012°16'0 0.0
2017-Dec-11 13:12N 45°13' E 012°16'0 0.0
2017-Dec-11 07:54N 45°13' E 012°16'0 0.0
2017-Dec-11 07:24N 45°13' E 012°16'0 0.0
2017-Dec-11 06:12N 45°13' E 012°16'0 0.0
2017-Dec-11 05:51N 45°13' E 012°16'0 0.0
2017-Dec-11 05:24N 45°13' E 012°16'0 0.0
2017-Dec-11 04:54N 45°13' E 012°16'0 0.0
2017-Dec-11 04:30N 45°13' E 012°16'0 0.0
2017-Dec-11 03:48N 45°13' E 012°16'0 0.0
2017-Dec-11 03:27N 45°13' E 012°16'0 0.0
2017-Dec-11 03:00N 45°13' E 012°16'0 0.0
2017-Dec-11 01:51N 45°13' E 012°16'0 0.0
2017-Dec-11 01:30N 45°13' E 012°16'0 0.0
2017-Dec-11 00:54N 45°13' E 012°16'0 0.0
2017-Dec-11 00:30N 45°13' E 012°16'0 0.0
2017-Dec-10 23:54N 45°13' E 012°16'0 0.0
2017-Dec-10 23:21N 45°13' E 012°16'0 0.0
2017-Dec-10 23:00N 45°13' E 012°16'0 0.0
2017-Dec-10 21:36N 45°13' E 012°16'0 0.0
2017-Dec-10 21:30N 45°13' E 012°16'0 0.0
2017-Dec-10 21:00N 45°13' E 012°16'0 0.0
2017-Dec-10 20:30N 45°13' E 012°16'0 0.0
2017-Dec-10 17:45N 45°13' E 012°16'0 0.0
2017-Dec-10 11:12N 45°13' E 012°16'0 0.0
2017-Dec-10 10:48N 45°13' E 012°16'0 0.0
2017-Dec-10 08:36N 45°13' E 012°16'0 0.1
2017-Dec-10 08:30N 45°13' E 012°16'0 0.0
2017-Dec-10 07:57N 45°13' E 012°16'0 0.0
2017-Dec-10 07:30N 45°13' E 012°16'0 0.0
2017-Dec-10 06:54N 45°13' E 012°16'0 0.0
2017-Dec-10 06:24N 45°13' E 012°16'0 0.0
2017-Dec-10 06:00N 45°13' E 012°16'0 0.0
2017-Dec-10 05:24N 45°13' E 012°16'0 0.0
2017-Dec-10 05:00N 45°13' E 012°16'0 0.0
2017-Dec-10 04:30N 45°13' E 012°16'0 0.0
2017-Dec-10 03:51N 45°13' E 012°16'0 0.5
2017-Dec-10 03:30N 45°12' E 012°16'0 0.3
2017-Dec-10 02:58N 45°13' E 012°16'0 0.0
2017-Dec-10 02:28N 45°13' E 012°16'0 0.0
2017-Dec-10 01:58N 45°13' E 012°16'0 0.0
2017-Dec-10 01:28N 45°13' E 012°16'0 0.0
2017-Dec-10 00:49N 45°13' E 012°16'0 0.0
2017-Dec-10 00:28N 45°13' E 012°16'0 0.0
2017-Dec-10 00:00N 45°13' E 012°16'0 0.0
2017-Dec-09 23:20N 45°13' E 012°16'0 0.0
2017-Dec-09 22:59N 45°13' E 012°16'0 0.0
2017-Dec-09 22:26N 45°13' E 012°16'0 0.0
2017-Dec-09 21:59N 45°13' E 012°16'0 0.0
2017-Dec-09 21:29N 45°13' E 012°16'0 0.0
2017-Dec-09 20:59N 45°13' E 012°16'0 0.0
2017-Dec-09 20:29N 45°13' E 012°16'0 0.0
2017-Dec-09 19:56N 45°13' E 012°16'0 0.0
2017-Dec-09 19:29N 45°13' E 012°16'0 0.0
2017-Dec-09 18:59N 45°13' E 012°16'0 0.0
2017-Dec-09 18:20N 45°13' E 012°16'0 0.0
2017-Dec-09 17:56N 45°13' E 012°16'0 0.0
2017-Dec-09 17:08N 45°13' E 012°16'0 0.0
2017-Dec-09 16:35N 45°13' E 012°16'0 0.0
2017-Dec-09 15:55N 45°13' E 012°16'0 0.0
2017-Dec-09 15:22N 45°13' E 012°16'0 0.0
2017-Dec-09 14:55N 45°13' E 012°16'0 0.0
2017-Dec-09 14:22N 45°13' E 012°16'0 0.0
2017-Dec-09 13:58N 45°13' E 012°16'0 0.0
2017-Dec-09 13:28N 45°13' E 012°16'0 0.0
2017-Dec-09 12:55N 45°13' E 012°16'0 0.0
2017-Dec-09 12:13N 45°13' E 012°16'0 0.0
2017-Dec-09 11:55N 45°13' E 012°16'0 0.0
2017-Dec-09 11:19N 45°13' E 012°16'0 0.0
2017-Dec-09 10:58N 45°13' E 012°16'0 0.0
2017-Dec-09 10:19N 45°13' E 012°16'0 0.0
2017-Dec-09 09:55N 45°13' E 012°16'0 0.0
2017-Dec-09 09:25N 45°13' E 012°16'0 0.0
2017-Dec-09 08:55N 45°13' E 012°16'0 0.4
2017-Dec-09 08:29N 45°13' E 012°16'2 4.0
2017-Dec-09 08:01N 45°14' E 012°18'3 5.9
2017-Dec-09 07:30N 45°14' E 012°22'1 1.2
2017-Dec-09 06:59N 45°15' E 012°23'0 0.0
2017-Dec-09 06:28N 45°15' E 012°23'0 0.0
2017-Dec-09 05:53N 45°15' E 012°23'0 0.2
2017-Dec-09 05:20N 45°15' E 012°23'0 0.2
2017-Dec-09 04:58N 45°15' E 012°23'0 0.1
2017-Dec-09 04:23N 45°15' E 012°23'0 0.0
2017-Dec-09 03:59N 45°15' E 012°23'0 0.0
2017-Dec-09 03:29N 45°15' E 012°23'0 0.0
2017-Dec-09 02:52N 45°15' E 012°23'0 0.0
2017-Dec-09 02:23N 45°15' E 012°23'0 0.0
2017-Dec-09 01:59N 45°15' E 012°23'0 0.0
2017-Dec-09 01:26N 45°15' E 012°23'0 0.0
2017-Dec-09 00:59N 45°15' E 012°23'0 0.0
2017-Dec-09 00:29N 45°15' E 012°23'0 0.0
2017-Dec-08 23:59N 45°15' E 012°23'0 0.0
2017-Dec-08 23:26N 45°15' E 012°23'0 0.0
2017-Dec-08 22:59N 45°15' E 012°23'0 0.0
2017-Dec-08 22:29N 45°15' E 012°23'0 0.0
2017-Dec-08 21:58N 45°15' E 012°23'0 0.0
2017-Dec-08 21:22N 45°15' E 012°23'0 0.0
2017-Dec-08 20:59N 45°15' E 012°23'0 0.0
2017-Dec-08 20:28N 45°15' E 012°23'0 0.0
2017-Dec-08 19:59N 45°15' E 012°23'0 0.0
2017-Dec-08 19:19N 45°15' E 012°23'0 0.0
2017-Dec-08 18:59N 45°15' E 012°23'0 0.0
2017-Dec-08 18:29N 45°15' E 012°23'0 0.0
2017-Dec-08 17:56N 45°15' E 012°23'0 0.0
2017-Dec-08 17:28N 45°15' E 012°23'0 0.0
2017-Dec-08 16:53N 45°15' E 012°23'0 0.0
2017-Dec-08 16:29N 45°15' E 012°23'0 0.0
2017-Dec-08 15:59N 45°15' E 012°23'0 0.0
2017-Dec-08 15:29N 45°15' E 012°23'0 0.0
2017-Dec-08 14:53N 45°15' E 012°23'0 0.2
2017-Dec-08 14:30N 45°15' E 012°23'2 4.7
2017-Dec-08 14:00N 45°14' E 012°27'5 9.2
2017-Dec-08 13:30N 45°16' E 012°32'5 9.6
2017-Dec-08 13:00N 45°13' E 012°38'5 9.5
2017-Dec-08 12:30N 45°10' E 012°43'5 9.3
2017-Dec-08 12:00N 45°07' E 012°48'5 9.4
2017-Dec-08 11:30N 45°03' E 012°50'5 9.4
2017-Dec-08 11:00N 44°58' E 012°53'5 9.5
2017-Dec-08 10:30N 44°54' E 012°56'5 9.7
2017-Dec-08 10:00N 44°49' E 012°58'5 9.5
2017-Dec-08 09:30N 44°45' E 013°01'5 9.5
2017-Dec-08 09:00N 44°40' E 013°03'5 9.5
2017-Dec-08 08:30N 44°36' E 013°05'5 9.5
2017-Dec-08 08:00N 44°31' E 013°08'4 9.0
2017-Dec-08 07:30N 44°27' E 013°10'4 8.3
2017-Dec-08 07:00N 44°23' E 013°12'4 8.5
2017-Dec-08 06:30N 44°20' E 013°15'4 8.6
2017-Dec-08 06:00N 44°16' E 013°17'5 8.4
2017-Dec-08 05:27N 44°13' E 013°22'5 8.5
2017-Dec-08 04:50N 44°10' E 013°28'  

Dump ship's entire track history